createdAt,value
2023-04-18T00:02:17.366Z,99311.31
2023-04-18T00:04:47.246Z,99308.53
2023-04-18T00:07:16.929Z,99308.53
2023-04-18T00:09:45.632Z,99313.25
2023-04-18T00:12:15.496Z,99310.47
2023-04-18T00:14:43.888Z,99319.94
2023-04-18T00:17:13.491Z,99313.88
2023-04-18T00:19:43.359Z,99315.81
2023-04-18T00:22:11.813Z,99314.97
2023-04-18T00:24:40.949Z,99316.91
2023-04-18T00:27:09.295Z,99309.44
2023-04-18T00:29:40.554Z,99306.16
2023-04-18T00:32:09.145Z,99309.75
2023-04-18T00:34:37.652Z,99321.66
2023-04-18T00:37:05.935Z,99316.41
2023-04-18T00:39:36.204Z,99313.63
2023-04-18T00:42:04.864Z,99319.16
2023-04-18T00:44:33.703Z,99315.59
2023-04-18T00:47:03.457Z,99311.16
2023-04-18T00:49:32.133Z,99307.56
2023-04-18T00:52:01.368Z,99313.94
2023-04-18T00:54:30.202Z,99311.16
2023-04-18T00:56:58.589Z,99315.06
2023-04-18T00:59:27.059Z,99310.66
2023-04-18T01:01:55.644Z,99311.47
2023-04-18T01:04:25.513Z,99320.06
2023-04-18T01:06:54.387Z,99314.53
2023-04-18T01:09:24.887Z,99316.47
2023-04-18T01:11:53.303Z,99312.91
2023-04-18T01:14:22.642Z,99312.06
2023-04-18T01:16:51.082Z,99313.97
2023-04-18T01:19:19.472Z,99311.53
2023-04-18T01:21:49.091Z,99312.63
2023-04-18T01:24:19.481Z,99315.41
2023-04-18T01:26:48.639Z,99311.81
2023-04-18T01:29:17.010Z,99307.41
2023-04-18T01:31:46.090Z,99305.75
2023-04-18T01:34:14.882Z,99313.25
2023-04-18T01:36:43.454Z,99311.59
2023-04-18T01:39:12.273Z,99309.66
2023-04-18T01:41:43.363Z,99313.53
2023-04-18T01:44:12.042Z,99317.97
2023-04-18T01:46:40.958Z,99313.84
2023-04-18T01:49:09.988Z,99299.16
2023-04-18T01:51:39.906Z,99312.19
2023-04-18T01:54:08.305Z,99314.16
2023-04-18T01:56:36.693Z,99308.06
2023-04-18T01:59:06.582Z,99316.38
2023-04-18T02:01:34.977Z,99310.84
2023-04-18T02:04:03.332Z,99310.84
2023-04-18T02:06:31.881Z,99314.16
2023-04-18T02:09:00.180Z,99313.59
2023-04-18T02:11:28.566Z,99315.25
2023-04-18T02:13:57.003Z,99320.50
2023-04-18T02:16:26.768Z,99324.09
2023-04-18T02:18:55.103Z,99319.97
2023-04-18T02:21:24.453Z,99308.38
2023-04-18T02:23:52.829Z,99315.03
2023-04-18T02:26:21.185Z,99308.69
2023-04-18T02:28:49.574Z,99326.09
2023-04-18T02:31:18.537Z,99315.03
2023-04-18T02:33:48.383Z,99314.22
2023-04-18T02:36:16.831Z,99320.34
2023-04-18T02:38:45.994Z,99317.88
2023-04-18T02:41:17.543Z,99317.38
2023-04-18T02:43:45.974Z,99325.69
2023-04-18T02:46:14.513Z,99328.72
2023-04-18T02:48:42.925Z,99321.56
2023-04-18T02:51:12.658Z,99321.56
2023-04-18T02:53:40.972Z,99327.63
2023-04-18T02:56:09.641Z,99324.31
2023-04-18T02:58:37.985Z,99318.78
2023-04-18T03:01:06.547Z,99319.06
2023-04-18T03:03:35.132Z,99330.44
2023-04-18T03:06:03.621Z,99322.97
2023-04-18T03:08:33.360Z,99326.56
2023-04-18T03:11:01.876Z,99321.03
2023-04-18T03:13:30.369Z,99324.59
2023-04-18T03:15:58.959Z,99321.84
2023-04-18T03:18:27.405Z,99325.75
2023-04-18T03:20:55.690Z,99322.97
2023-04-18T03:23:24.028Z,99318.53
2023-04-18T03:25:53.868Z,99332.69
2023-04-18T03:28:22.283Z,99320.47
2023-04-18T03:30:50.771Z,99316.09
2023-04-18T03:33:19.190Z,99320.78
2023-04-18T03:35:47.613Z,99321.31
2023-04-18T03:38:16.014Z,99321.03
2023-04-18T03:40:44.591Z,99319.38
2023-04-18T03:43:14.280Z,99324.09
2023-04-18T03:45:44.144Z,99328.78
2023-04-18T03:48:12.516Z,99331.56
2023-04-18T03:50:41.038Z,99332.69
2023-04-18T03:53:09.412Z,99326.31
2023-04-18T03:55:37.860Z,99319.69
2023-04-18T03:58:06.340Z,99336.28
2023-04-18T04:00:36.070Z,99336.56
2023-04-18T04:03:04.597Z,99334.63
2023-04-18T04:05:33.156Z,99335.47
2023-04-18T04:08:01.546Z,99339.88
2023-04-18T04:10:30.012Z,99345.41
2023-04-18T04:12:58.293Z,99347.06
2023-04-18T04:15:26.736Z,99349.81
2023-04-18T04:17:56.492Z,99345.94
2023-04-18T04:20:25.858Z,99343.19
2023-04-18T04:22:55.304Z,99349.53
2023-04-18T04:25:24.634Z,99346.22
2023-04-18T04:27:53.727Z,99349.81
2023-04-18T04:30:22.790Z,99349.00
2023-04-18T04:32:51.276Z,99357.63
2023-04-18T04:35:21.121Z,99351.56
2023-04-18T04:37:50.735Z,99360.13
2023-04-18T04:40:19.272Z,99360.44
2023-04-18T04:42:49.214Z,99360.44
2023-04-18T04:45:18.095Z,99365.16
2023-04-18T04:47:46.493Z,99365.47
2023-04-18T04:50:16.316Z,99368.22
2023-04-18T04:52:46.056Z,99366.56
2023-04-18T04:55:14.445Z,99372.94
2023-04-18T04:57:42.840Z,99372.41
2023-04-18T05:00:13.801Z,99380.72
2023-04-18T05:02:42.232Z,99377.63
2023-04-18T05:05:10.842Z,99376.84
2023-04-18T05:07:39.220Z,99376.00
2023-04-18T05:10:10.205Z,99369.13
2023-04-18T05:12:38.580Z,99378.84
2023-04-18T05:15:08.411Z,99383.53
2023-04-18T05:17:36.815Z,99378.31
2023-04-18T05:20:06.206Z,99384.38
2023-04-18T05:22:34.521Z,99384.91
2023-04-18T05:25:03.017Z,99383.78
2023-04-18T05:27:32.696Z,99386.25
2023-04-18T05:30:01.036Z,99381.81
2023-04-18T05:32:29.378Z,99383.78
2023-04-18T05:34:57.812Z,99386.56
2023-04-18T05:37:26.194Z,99384.59
2023-04-18T05:39:54.471Z,99386.25
2023-04-18T05:42:22.832Z,99390.38
2023-04-18T05:44:52.576Z,99382.91
2023-04-18T05:47:21.232Z,99388.97
2023-04-18T05:49:49.606Z,99390.59
2023-04-18T05:52:17.980Z,99396.66
2023-04-18T05:54:46.261Z,99390.00
2023-04-18T05:57:14.588Z,99389.69
2023-04-18T05:59:42.935Z,99386.94
2023-04-18T06:02:14.201Z,99398.25
2023-04-18T06:04:43.936Z,99393.75
2023-04-18T06:07:12.575Z,99393.69
2023-04-18T06:09:40.878Z,99389.50
2023-04-18T06:12:09.349Z,99390.81
2023-04-18T06:14:37.711Z,99387.13
2023-04-18T06:17:07.752Z,99385.97
2023-04-18T06:19:37.596Z,99381.47
2023-04-18T06:22:06.125Z,99393.00
2023-04-18T06:24:34.526Z,99393.44
2023-04-18T06:27:03.081Z,99393.06
2023-04-18T06:29:33.318Z,99394.66
2023-04-18T06:32:01.963Z,99396.53
2023-04-18T06:34:30.438Z,99402.06
2023-04-18T06:37:00.216Z,99407.09
2023-04-18T06:39:28.912Z,99408.50
2023-04-18T06:41:58.036Z,99403.56
2023-04-18T06:44:26.455Z,99406.91
2023-04-18T06:46:54.868Z,99410.84
2023-04-18T06:49:26.431Z,99411.94
2023-04-18T06:51:55.180Z,99404.47
2023-04-18T06:54:25.061Z,99410.22
2023-04-18T06:56:54.562Z,99416.28
2023-04-18T06:59:23.416Z,99408.78
2023-04-18T07:01:52.609Z,99411.78
2023-04-18T07:04:21.330Z,99417.34
2023-04-18T07:06:49.747Z,99417.03
2023-04-18T07:09:18.120Z,99415.91
2023-04-18T07:11:47.846Z,99421.34
2023-04-18T07:14:16.498Z,99419.34
2023-04-18T07:16:45.039Z,99417.31
2023-04-18T07:19:13.598Z,99411.78
2023-04-18T07:21:43.784Z,99424.94
2023-04-18T07:24:13.531Z,99418.81
2023-04-18T07:26:42.524Z,99419.31
2023-04-18T07:29:12.324Z,99425.97
2023-04-18T07:31:40.670Z,99434.63
2023-04-18T07:34:09.190Z,99429.97
2023-04-18T07:36:38.497Z,99432.53
2023-04-18T07:39:06.954Z,99432.00
2023-04-18T07:41:35.422Z,99430.88
2023-04-18T07:44:04.128Z,99424.22
2023-04-18T07:46:34.162Z,99435.00
2023-04-18T07:49:03.637Z,99427.50
2023-04-18T07:51:32.477Z,99433.56
2023-04-18T07:54:01.395Z,99428.03
2023-04-18T07:56:29.951Z,99435.50
2023-04-18T07:58:58.303Z,99436.34
2023-04-18T08:01:27.330Z,99437.38
2023-04-18T08:03:57.963Z,99435.06
2023-04-18T08:06:27.096Z,99434.66
2023-04-18T08:08:55.635Z,99433.75
2023-04-18T08:11:24.020Z,99442.59
2023-04-18T08:13:52.400Z,99437.56
2023-04-18T08:16:21.229Z,99448.88
2023-04-18T08:18:49.645Z,99440.00
2023-04-18T08:21:19.806Z,99431.03
2023-04-18T08:23:48.281Z,99443.22
2023-04-18T08:26:16.673Z,99446.19
2023-04-18T08:28:46.596Z,99445.59
2023-04-18T08:31:16.441Z,99437.47
2023-04-18T08:33:44.891Z,99448.25
2023-04-18T08:36:14.117Z,99444.16
2023-04-18T08:38:43.895Z,99445.06
2023-04-18T08:41:12.438Z,99458.41
2023-04-18T08:43:40.859Z,99452.31
2023-04-18T08:46:09.258Z,99460.38
2023-04-18T08:48:38.121Z,99459.75
2023-04-18T08:51:07.016Z,99453.06
2023-04-18T08:53:35.631Z,99458.31
2023-04-18T08:56:05.568Z,99462.75
2023-04-18T08:58:35.001Z,99456.19
2023-04-18T09:01:03.606Z,99457.34
2023-04-18T09:03:40.743Z,99460.97
2023-04-18T09:06:13.903Z,99454.81
2023-04-18T09:08:44.545Z,99455.41
2023-04-18T09:11:26.047Z,99455.63
2023-04-18T09:13:56.414Z,99463.50
2023-04-18T09:16:25.443Z,99463.75
2023-04-18T09:19:14.911Z,99455.03
2023-04-18T09:21:46.329Z,99455.81
2023-04-18T09:24:21.120Z,99456.09
2023-04-18T09:26:53.839Z,99450.81
2023-04-18T09:29:23.628Z,99455.84
2023-04-18T09:32:03.178Z,99447.06
2023-04-18T09:34:34.201Z,99447.97
2023-04-18T09:37:11.486Z,99450.81
2023-04-18T09:39:41.686Z,99454.19
2023-04-18T09:42:11.568Z,99448.16
2023-04-18T09:44:58.511Z,99446.38
2023-04-18T09:47:28.912Z,99452.16
2023-04-18T09:49:57.472Z,99452.22
2023-04-18T09:52:26.929Z,99451.94
2023-04-18T09:55:00.853Z,99459.84
2023-04-18T09:57:32.658Z,99452.22
2023-04-18T10:00:10.661Z,99455.09
2023-04-18T10:02:52.595Z,99445.50
2023-04-18T10:05:27.387Z,99462.28
2023-04-18T10:07:57.003Z,99452.31
2023-04-18T10:10:26.376Z,99443.50
2023-04-18T10:12:58.230Z,99447.44
2023-04-18T10:15:29.234Z,99457.31
2023-04-18T10:18:05.280Z,99457.47
2023-04-18T10:20:35.983Z,99446.16
2023-04-18T10:23:36.265Z,99462.19
2023-04-18T10:26:05.595Z,99455.09
2023-04-18T10:28:55.293Z,99453.28
2023-04-18T10:31:24.681Z,99453.13
2023-04-18T10:34:04.593Z,99458.22
2023-04-18T10:36:34.663Z,99454.94
2023-04-18T10:39:20.637Z,99457.09
2023-04-18T10:41:51.559Z,99461.19
2023-04-18T10:44:24.938Z,99451.34
2023-04-18T10:47:24.683Z,99449.06
2023-04-18T10:50:05.908Z,99456.13
2023-04-18T10:52:35.916Z,99453.34
2023-04-18T10:55:25.720Z,99444.69
2023-04-18T10:57:56.528Z,99455.22
2023-04-18T11:00:26.784Z,99448.00
2023-04-18T11:02:57.914Z,99448.31
2023-04-18T11:05:29.568Z,99447.81
2023-04-18T11:07:58.002Z,99446.97
2023-04-18T11:10:28.348Z,99441.41
2023-04-18T11:12:59.300Z,99446.66
2023-04-18T11:15:30.868Z,99446.50
2023-04-18T11:18:02.613Z,99438.94
2023-04-18T11:20:38.341Z,99440.78
2023-04-18T11:23:19.739Z,99442.56
2023-04-18T11:25:51.472Z,99435.66
2023-04-18T11:28:22.162Z,99435.00
2023-04-18T11:30:52.088Z,99454.53
2023-04-18T11:33:20.605Z,99453.22
2023-04-18T11:35:49.037Z,99453.41
2023-04-18T11:38:18.630Z,99441.41
2023-04-18T11:40:49.965Z,99450.47
2023-04-18T11:43:22.965Z,99446.50
2023-04-18T11:45:57.837Z,99439.94
2023-04-18T11:48:35.013Z,99447.31
2023-04-18T11:51:03.444Z,99437.63
2023-04-18T11:53:35.574Z,99437.31
2023-04-18T11:56:04.634Z,99434.34
2023-04-18T11:58:33.656Z,99451.25
2023-04-18T12:01:18.380Z,99442.19
2023-04-18T12:04:02.388Z,99437.19
2023-04-18T12:06:49.052Z,99436.72
2023-04-18T12:09:18.455Z,99438.66
2023-04-18T12:11:59.295Z,99438.19
2023-04-18T12:14:28.744Z,99444.66
2023-04-18T12:16:58.502Z,99445.34
2023-04-18T12:19:28.744Z,99449.47
2023-04-18T12:22:00.514Z,99452.88
2023-04-18T12:24:29.899Z,99453.41
2023-04-18T12:26:58.634Z,99453.09
2023-04-18T12:29:28.426Z,99462.41
2023-04-18T12:31:58.314Z,99455.22
2023-04-18T12:34:26.679Z,99458.09
2023-04-18T12:36:55.301Z,99465.81
2023-04-18T12:39:23.633Z,99461.50
2023-04-18T12:41:51.979Z,99467.34
2023-04-18T12:44:20.926Z,99464.03
2023-04-18T12:46:49.353Z,99467.44
2023-04-18T12:49:19.066Z,99470.50
2023-04-18T12:51:47.452Z,99471.78
2023-04-18T12:54:16.090Z,99466.78
2023-04-18T12:56:46.188Z,99474.78
2023-04-18T12:59:14.756Z,99472.44
2023-04-18T13:01:43.469Z,99473.69
2023-04-18T13:04:13.160Z,99468.91
2023-04-18T13:06:43.266Z,99472.16
2023-04-18T13:09:12.140Z,99478.16
2023-04-18T13:11:40.626Z,99472.22
2023-04-18T13:14:09.046Z,99474.78
2023-04-18T13:16:37.435Z,99465.44
2023-04-18T13:19:05.904Z,99470.81
2023-04-18T13:21:34.313Z,99470.63
2023-04-18T13:24:04.175Z,99464.34
2023-04-18T13:26:35.662Z,99458.59
2023-04-18T13:29:04.639Z,99460.84
2023-04-18T13:31:33.074Z,99461.97
2023-04-18T13:34:01.479Z,99455.00
2023-04-18T13:36:29.902Z,99456.31
2023-04-18T13:38:58.693Z,99454.53
2023-04-18T13:41:29.053Z,99452.81
2023-04-18T13:43:57.484Z,99453.31
2023-04-18T13:46:26.699Z,99458.88
2023-04-18T13:48:55.335Z,99463.94
2023-04-18T13:51:23.803Z,99460.44
2023-04-18T13:53:52.424Z,99463.34
2023-04-18T13:56:20.927Z,99463.25
2023-04-18T13:58:51.093Z,99467.06
2023-04-18T14:01:19.918Z,99463.91
2023-04-18T14:03:48.554Z,99470.91
2023-04-18T14:06:17.091Z,99468.78
2023-04-18T14:08:45.501Z,99473.28
2023-04-18T14:11:13.785Z,99466.41
2023-04-18T14:13:42.242Z,99463.94
2023-04-18T14:16:12.149Z,99464.03
2023-04-18T14:18:40.857Z,99464.97
2023-04-18T14:21:09.241Z,99466.75
2023-04-18T14:23:37.642Z,99467.69
2023-04-18T14:26:06.915Z,99466.16
2023-04-18T14:28:35.398Z,99471.50
2023-04-18T14:31:06.470Z,99468.53
2023-04-18T14:33:36.367Z,99474.88
2023-04-18T14:36:05.038Z,99473.75
2023-04-18T14:38:33.492Z,99464.31
2023-04-18T14:41:02.192Z,99475.44
2023-04-18T14:43:30.619Z,99479.94
2023-04-18T14:45:59.710Z,99464.19
2023-04-18T14:48:28.690Z,99467.06
2023-04-18T14:51:02.633Z,99456.34
2023-04-18T14:53:31.162Z,99459.13
2023-04-18T14:55:59.605Z,99464.16
2023-04-18T14:58:27.864Z,99458.94
2023-04-18T15:00:56.399Z,99474.75
2023-04-18T15:03:24.933Z,99462.53
2023-04-18T15:05:53.862Z,99474.44
2023-04-18T15:08:23.747Z,99469.72
2023-04-18T15:10:52.225Z,99468.88
2023-04-18T15:13:20.703Z,99472.81
2023-04-18T15:15:53.982Z,99469.81
2023-04-18T15:18:22.323Z,99476.53
2023-04-18T15:20:50.741Z,99467.69
2023-04-18T15:23:19.152Z,99467.34
2023-04-18T15:25:48.916Z,99473.44
2023-04-18T15:28:18.662Z,99472.31
2023-04-18T15:30:47.569Z,99467.34
2023-04-18T15:33:17.981Z,99471.38
2023-04-18T15:35:46.486Z,99481.75
2023-04-18T15:38:15.064Z,99473.00
2023-04-18T15:40:44.735Z,99472.56
2023-04-18T15:43:17.133Z,99467.44
2023-04-18T15:45:45.781Z,99469.19
2023-04-18T15:48:14.216Z,99470.63
2023-04-18T15:50:43.346Z,99469.59
2023-04-18T15:53:11.747Z,99477.09
2023-04-18T15:55:40.292Z,99481.81
2023-04-18T15:58:08.681Z,99479.34
2023-04-18T16:00:38.528Z,99485.81
2023-04-18T16:03:09.887Z,99482.28
2023-04-18T16:05:38.391Z,99483.28
2023-04-18T16:08:09.057Z,99481.28
2023-04-18T16:10:37.744Z,99477.94
2023-04-18T16:13:06.776Z,99489.75
2023-04-18T16:15:36.115Z,99492.47
2023-04-18T16:18:06.021Z,99486.56
2023-04-18T16:20:34.533Z,99485.03
2023-04-18T16:23:03.108Z,99487.97
2023-04-18T16:25:31.804Z,99487.25
2023-04-18T16:28:00.251Z,99482.66
2023-04-18T16:30:28.598Z,99479.69
2023-04-18T16:32:57.123Z,99472.88
2023-04-18T16:35:27.320Z,99479.59
2023-04-18T16:37:55.713Z,99482.41
2023-04-18T16:40:24.355Z,99478.06
2023-04-18T16:42:52.836Z,99478.44
2023-04-18T16:45:21.885Z,99481.78
2023-04-18T16:47:50.925Z,99476.00
2023-04-18T16:50:19.927Z,99477.94
2023-04-18T16:52:50.026Z,99476.28
2023-04-18T16:55:18.858Z,99486.53
2023-04-18T16:57:47.881Z,99478.22
2023-04-18T17:00:16.939Z,99480.47
2023-04-18T17:02:47.319Z,99478.22
2023-04-18T17:05:16.270Z,99481.00
2023-04-18T17:07:47.896Z,99484.59
2023-04-18T17:10:18.302Z,99484.59
2023-04-18T17:12:49.191Z,99489.59
2023-04-18T17:15:20.259Z,99490.13
2023-04-18T17:17:48.902Z,99494.03
2023-04-18T17:20:18.051Z,99482.13
2023-04-18T17:22:46.895Z,99492.38
2023-04-18T17:25:15.560Z,99492.06
2023-04-18T17:27:45.821Z,99492.38
2023-04-18T17:30:15.280Z,99494.03
2023-04-18T17:32:46.313Z,99503.13
2023-04-18T17:35:15.729Z,99509.81
2023-04-18T17:37:44.843Z,99508.13
2023-04-18T17:40:15.815Z,99516.22
2023-04-18T17:42:45.978Z,99526.16
2023-04-18T17:45:15.010Z,99529.75
2023-04-18T17:47:44.461Z,99530.88
2023-04-18T17:50:13.661Z,99532.00
2023-04-18T17:52:42.222Z,99532.81
2023-04-18T17:55:12.109Z,99536.44
2023-04-18T17:57:42.334Z,99527.81
2023-04-18T18:00:16.871Z,99531.41
2023-04-18T18:02:47.917Z,99528.88
2023-04-18T18:05:17.831Z,99530.81
2023-04-18T18:07:49.114Z,99538.00
2023-04-18T18:10:22.921Z,99533.59
2023-04-18T18:12:53.733Z,99532.47
2023-04-18T18:15:24.906Z,99539.41
2023-04-18T18:17:55.532Z,99545.25
2023-04-18T18:20:29.170Z,99553.03
2023-04-18T18:22:59.939Z,99558.56
2023-04-18T18:25:31.651Z,99563.81
2023-04-18T18:28:02.653Z,99557.97
2023-04-18T18:30:34.401Z,99558.78
2023-04-18T18:33:04.204Z,99553.53
2023-04-18T18:35:34.405Z,99551.56
2023-04-18T18:38:04.703Z,99550.75
2023-04-18T18:40:34.535Z,99542.44
2023-04-18T18:43:05.423Z,99555.47
2023-04-18T18:45:36.618Z,99547.41
2023-04-18T18:48:08.042Z,99555.47
2023-04-18T18:50:43.084Z,99549.91
2023-04-18T18:53:17.307Z,99555.16
2023-04-18T18:55:47.167Z,99556.28
2023-04-18T18:58:16.080Z,99555.16
2023-04-18T19:00:49.430Z,99556.28
2023-04-18T19:03:22.270Z,99549.63
2023-04-18T19:05:57.073Z,99559.59
2023-04-18T19:08:30.386Z,99553.22
2023-04-18T19:11:02.508Z,99560.69
2023-04-18T19:13:33.542Z,99562.34
2023-04-18T19:16:04.872Z,99561.22
2023-04-18T19:18:36.216Z,99560.94
2023-04-18T19:21:05.744Z,99556.22
2023-04-18T19:23:37.342Z,99556.22
2023-04-18T19:26:08.001Z,99560.13
2023-04-18T19:28:38.225Z,99564.81
2023-04-18T19:31:10.129Z,99560.13
2023-04-18T19:33:41.865Z,99548.50
2023-04-18T19:36:11.703Z,99564.50
2023-04-18T19:38:42.080Z,99569.25
2023-04-18T19:41:11.969Z,99560.94
2023-04-18T19:43:43.217Z,99570.63
2023-04-18T19:46:21.748Z,99563.72
2023-04-18T19:48:51.538Z,99555.94
2023-04-18T19:51:21.914Z,99552.03
2023-04-18T19:53:51.320Z,99557.03
2023-04-18T19:56:20.574Z,99560.13
2023-04-18T19:58:49.841Z,99560.13
2023-04-18T20:01:24.903Z,99551.56
2023-04-18T20:03:59.106Z,99552.38
2023-04-18T20:06:29.180Z,99557.38
2023-04-18T20:08:59.149Z,99563.22
2023-04-18T20:11:29.363Z,99567.09
2023-04-18T20:13:58.834Z,99553.84
2023-04-18T20:16:29.020Z,99559.66
2023-04-18T20:18:58.428Z,99560.81
2023-04-18T20:21:28.079Z,99558.31
2023-04-18T20:24:00.258Z,99548.63
2023-04-18T20:26:28.760Z,99545.34
2023-04-18T20:28:57.567Z,99558.66
2023-04-18T20:31:29.464Z,99556.97
2023-04-18T20:33:58.681Z,99565.00
2023-04-18T20:36:29.337Z,99562.81
2023-04-18T20:38:58.796Z,99567.53
2023-04-18T20:41:29.836Z,99566.47
2023-04-18T20:43:59.991Z,99575.31
2023-04-18T20:46:30.704Z,99571.22
2023-04-18T20:49:00.953Z,99564.59
2023-04-18T20:51:29.897Z,99566.81
2023-04-18T20:53:58.368Z,99570.16
2023-04-18T20:56:26.790Z,99577.13
2023-04-18T20:58:55.445Z,99573.78
2023-04-18T21:01:24.378Z,99578.00
2023-04-18T21:03:54.384Z,99577.72
2023-04-18T21:06:23.050Z,99578.03
2023-04-18T21:08:51.438Z,99579.41
2023-04-18T21:11:19.837Z,99573.31
2023-04-18T21:13:48.208Z,99578.31
2023-04-18T21:16:16.633Z,99584.13
2023-04-18T21:18:45.054Z,99583.28
2023-04-18T21:21:14.868Z,99590.78
2023-04-18T21:23:44.055Z,99589.66
2023-04-18T21:26:14.108Z,99588.00
2023-04-18T21:29:00.085Z,99583.03
2023-04-18T21:31:32.911Z,99582.75
2023-04-18T21:34:03.098Z,99577.22
2023-04-18T21:36:33.563Z,99580.59
2023-04-18T21:39:02.323Z,99584.44
2023-04-18T21:41:30.839Z,99583.06
2023-04-18T21:43:59.183Z,99579.78
2023-04-18T21:46:27.713Z,99582.31
2023-04-18T21:48:56.115Z,99583.69
2023-04-18T21:51:24.516Z,99575.13
2023-04-18T21:53:54.288Z,99581.22
2023-04-18T21:56:22.659Z,99573.53
2023-04-18T21:58:51.071Z,99575.75
2023-04-18T22:01:19.521Z,99572.44
2023-04-18T22:03:48.068Z,99569.13
2023-04-18T22:06:17.208Z,99569.41
2023-04-18T22:08:45.658Z,99570.53
2023-04-18T22:11:15.809Z,99569.72
2023-04-18T22:13:44.905Z,99572.47
2023-04-18T22:16:13.528Z,99573.31
2023-04-18T22:18:41.892Z,99562.25
2023-04-18T22:21:10.627Z,99569.41
2023-04-18T22:23:38.991Z,99569.41
2023-04-18T22:26:07.576Z,99571.06
2023-04-18T22:28:37.347Z,99561.94
2023-04-18T22:31:06.272Z,99561.66
2023-04-18T22:33:34.684Z,99562.50
2023-04-18T22:36:03.101Z,99566.91
2023-04-18T22:38:31.540Z,99563.03
2023-04-18T22:41:00.845Z,99557.50
2023-04-18T22:43:29.301Z,99556.66
2023-04-18T22:45:59.130Z,99555.03
2023-04-18T22:48:27.525Z,99555.03
2023-04-18T22:50:55.855Z,99551.72
2023-04-18T22:53:24.540Z,99559.50
2023-04-18T22:55:52.916Z,99563.91
2023-04-18T22:58:21.370Z,99562.53
2023-04-18T23:00:49.703Z,99554.00
2023-04-18T23:03:19.701Z,99553.16
2023-04-18T23:05:48.117Z,99550.16
2023-04-18T23:08:18.752Z,99546.88
2023-04-18T23:10:47.178Z,99550.19
2023-04-18T23:13:15.638Z,99544.94
2023-04-18T23:15:44.060Z,99544.16
2023-04-18T23:18:12.692Z,99544.97
2023-04-18T23:20:42.431Z,99543.59
2023-04-18T23:23:10.807Z,99543.88
2023-04-18T23:25:39.312Z,99535.88
2023-04-18T23:28:07.967Z,99543.34
2023-04-18T23:30:37.904Z,99541.69
2023-04-18T23:33:06.645Z,99550.81
2023-04-18T23:35:35.169Z,99544.16
2023-04-18T23:38:04.879Z,99537.81
2023-04-18T23:40:33.313Z,99529.25
2023-04-18T23:43:02.310Z,99528.97
2023-04-18T23:45:31.105Z,99525.38
2023-04-18T23:47:59.495Z,99534.19
2023-04-18T23:50:28.006Z,99524.25
2023-04-18T23:52:56.428Z,99516.81
2023-04-18T23:55:26.200Z,99512.69
2023-04-18T23:57:54.566Z,99516.84
